createdAt,value
2023-05-24T00:01:20.994Z,174.85
2023-05-24T00:03:47.467Z,162.48
2023-05-24T00:06:13.826Z,165.63
2023-05-24T00:08:40.076Z,159.23
2023-05-24T00:11:06.425Z,151.93
2023-05-24T00:13:33.143Z,157.57
2023-05-24T00:16:04.062Z,145.57
2023-05-24T00:18:35.542Z,143.80
2023-05-24T00:21:03.120Z,144.13
2023-05-24T00:23:32.726Z,140.80
2023-05-24T00:25:59.109Z,140.55
2023-05-24T00:28:31.212Z,141.45
2023-05-24T00:31:01.391Z,136.73
2023-05-24T00:33:32.080Z,140.55
2023-05-24T00:35:58.354Z,131.23
2023-05-24T00:38:28.431Z,133.40
2023-05-24T00:40:54.707Z,124.55
2023-05-24T00:43:25.333Z,125.30
2023-05-24T00:45:52.700Z,122.85
2023-05-24T00:48:20.317Z,128.13
2023-05-24T00:50:49.595Z,123.00
2023-05-24T00:53:20.912Z,119.80
2023-05-24T00:55:47.202Z,117.03
2023-05-24T00:58:15.858Z,114.57
2023-05-24T01:00:42.286Z,114.72
2023-05-24T01:03:08.798Z,106.72
2023-05-24T01:05:39.159Z,107.65
2023-05-24T01:08:10.381Z,104.85
2023-05-24T01:10:36.632Z,104.25
2023-05-24T01:13:09.473Z,105.50
2023-05-24T01:15:35.763Z,102.90
2023-05-24T01:18:02.118Z,91.43
2023-05-24T01:20:31.115Z,94.88
2023-05-24T01:23:03.450Z,92.85
2023-05-24T01:25:29.701Z,96.20
2023-05-24T01:27:58.941Z,93.28
2023-05-24T01:30:25.209Z,92.82
2023-05-24T01:32:51.505Z,91.82
2023-05-24T01:35:19.723Z,87.75
2023-05-24T01:37:53.719Z,86.32
2023-05-24T01:40:22.586Z,87.80
2023-05-24T01:45:19.361Z,81.65
2023-05-24T01:47:45.795Z,82.60
2023-05-24T01:50:18.439Z,82.68
2023-05-24T01:52:44.951Z,79.95
2023-05-24T01:55:11.198Z,78.72
2023-05-24T01:57:40.925Z,74.15
2023-05-24T02:00:07.583Z,77.35
2023-05-24T02:02:35.014Z,69.50
2023-05-24T02:05:05.502Z,74.45
2023-05-24T02:07:33.439Z,70.45
2023-05-24T02:09:59.738Z,69.93
2023-05-24T02:12:25.992Z,69.25
2023-05-24T02:14:52.265Z,69.28
2023-05-24T02:17:18.525Z,73.20
2023-05-24T02:19:44.788Z,68.50
2023-05-24T02:22:11.038Z,65.47
2023-05-24T02:24:37.284Z,67.20
2023-05-24T02:27:08.057Z,65.25
2023-05-24T02:29:41.131Z,65.47
2023-05-24T02:32:07.841Z,64.70
2023-05-24T02:34:41.250Z,60.35
2023-05-24T02:37:13.316Z,61.63
2023-05-24T02:39:39.643Z,62.65
2023-05-24T02:42:10.241Z,57.55
2023-05-24T02:44:42.577Z,61.78
2023-05-24T02:47:08.858Z,60.22
2023-05-24T02:49:35.901Z,57.28
2023-05-24T02:52:02.148Z,55.28
2023-05-24T02:54:28.389Z,56.85
2023-05-24T02:56:55.986Z,55.67
2023-05-24T02:59:22.312Z,53.15
2023-05-24T03:01:49.829Z,54.28
2023-05-24T03:04:19.662Z,54.05
2023-05-24T03:06:45.929Z,54.55
2023-05-24T03:09:12.276Z,53.30
2023-05-24T03:11:44.605Z,49.60
2023-05-24T03:14:16.765Z,49.85
2023-05-24T03:16:43.322Z,49.35
2023-05-24T03:19:10.120Z,50.17
2023-05-24T03:21:36.645Z,47.28
2023-05-24T03:24:02.943Z,46.85
2023-05-24T03:26:34.732Z,48.95
2023-05-24T03:29:08.478Z,48.40
2023-05-24T03:31:39.875Z,47.08
2023-05-24T03:34:06.186Z,44.17
2023-05-24T03:36:40.286Z,48.00
2023-05-24T03:39:06.525Z,42.60
2023-05-24T03:41:32.777Z,43.83
2023-05-24T03:44:03.942Z,39.30
2023-05-24T03:46:33.797Z,42.83
2023-05-24T03:49:00.146Z,43.85
2023-05-24T03:51:36.384Z,43.63
2023-05-24T03:54:02.703Z,40.47
2023-05-24T03:56:29.074Z,38.80
2023-05-24T03:59:01.577Z,42.70
2023-05-24T04:04:01.867Z,41.83
2023-05-24T04:06:30.165Z,42.33
2023-05-24T04:08:56.424Z,36.10
2023-05-24T04:11:27.050Z,38.42
2023-05-24T04:13:54.088Z,38.53
2023-05-24T04:16:20.520Z,39.28
2023-05-24T04:18:48.442Z,36.67
2023-05-24T04:21:14.920Z,35.33
2023-05-24T04:23:46.757Z,33.50
2023-05-24T04:26:13.038Z,35.15
2023-05-24T04:28:44.389Z,33.20
2023-05-24T04:31:18.638Z,35.55
2023-05-24T04:33:44.905Z,32.97
2023-05-24T04:36:11.150Z,33.63
2023-05-24T04:38:37.410Z,32.80
2023-05-24T04:41:06.364Z,30.55
2023-05-24T04:43:38.566Z,32.13
2023-05-24T04:46:06.306Z,30.10
2023-05-24T04:48:42.880Z,32.95
2023-05-24T04:51:09.160Z,30.27
2023-05-24T04:53:35.436Z,31.40
2023-05-24T04:56:01.943Z,29.67
2023-05-24T04:58:33.262Z,30.25
2023-05-24T05:01:02.299Z,30.15
2023-05-24T05:03:28.607Z,31.55
2023-05-24T05:05:54.948Z,28.08
2023-05-24T05:08:24.739Z,26.25
2023-05-24T05:10:54.689Z,24.83
2023-05-24T05:13:20.941Z,27.08
2023-05-24T05:15:50.949Z,26.10
2023-05-24T05:18:18.756Z,25.83
2023-05-24T05:20:45.606Z,25.40
2023-05-24T05:23:12.175Z,23.30
2023-05-24T05:25:41.501Z,21.48
2023-05-24T05:28:09.007Z,23.25
2023-05-24T05:30:37.821Z,23.10
2023-05-24T05:33:04.114Z,22.15
2023-05-24T05:35:30.579Z,18.42
2023-05-24T05:37:59.146Z,22.23
2023-05-24T05:40:28.085Z,21.00
2023-05-24T05:42:56.305Z,24.15
2023-05-24T05:45:22.592Z,21.33
2023-05-24T05:47:49.003Z,19.10
2023-05-24T05:50:20.378Z,21.60
2023-05-24T05:52:46.624Z,21.25
2023-05-24T05:55:17.595Z,22.15
2023-05-24T05:57:43.987Z,18.00
2023-05-24T06:00:10.978Z,18.98
2023-05-24T06:02:37.295Z,20.83
2023-05-24T06:05:04.796Z,18.63
2023-05-24T06:07:31.405Z,19.80
2023-05-24T06:09:58.196Z,18.67
2023-05-24T06:12:24.470Z,21.92
2023-05-24T06:14:56.304Z,17.13
2023-05-24T06:17:23.045Z,19.63
2023-05-24T06:19:50.336Z,20.45
2023-05-24T06:22:17.043Z,17.48
2023-05-24T06:24:43.279Z,16.80
2023-05-24T06:27:09.521Z,19.67
2023-05-24T06:29:35.851Z,17.63
2023-05-24T06:32:07.274Z,17.48
2023-05-24T06:34:37.788Z,16.45
2023-05-24T06:37:04.220Z,15.48
2023-05-24T06:39:30.517Z,19.38
2023-05-24T06:41:56.816Z,19.85
2023-05-24T06:44:25.269Z,16.63
2023-05-24T06:46:51.725Z,14.98
2023-05-24T06:49:22.366Z,17.08
2023-05-24T06:51:53.071Z,17.70
2023-05-24T06:54:19.403Z,13.88
2023-05-24T06:56:47.929Z,13.88
2023-05-24T06:59:14.409Z,15.35
2023-05-24T07:01:45.300Z,16.40
2023-05-24T07:04:11.633Z,17.38
2023-05-24T07:06:45.141Z,14.35
2023-05-24T07:09:15.088Z,15.18
2023-05-24T07:11:41.395Z,14.05
2023-05-24T07:14:07.695Z,13.25
2023-05-24T07:16:37.841Z,14.18
2023-05-24T07:19:07.988Z,13.10
2023-05-24T07:21:42.266Z,13.40
2023-05-24T07:24:08.538Z,12.13
2023-05-24T07:26:34.821Z,12.25
2023-05-24T07:29:01.900Z,14.85
2023-05-24T07:31:32.939Z,10.90
2023-05-24T07:34:04.697Z,12.75
2023-05-24T07:36:39.843Z,14.20
2023-05-24T07:39:11.451Z,13.32
2023-05-24T07:41:41.244Z,12.07
2023-05-24T07:44:10.890Z,12.55
2023-05-24T07:46:37.259Z,10.90
2023-05-24T07:49:03.523Z,13.93
2023-05-24T07:51:31.818Z,24.85
2023-05-24T07:54:02.933Z,25.80
2023-05-24T07:56:29.194Z,38.05
2023-05-24T07:58:57.037Z,41.60
2023-05-24T08:01:24.230Z,45.15
2023-05-24T08:03:50.611Z,135.00
2023-05-24T08:06:17.085Z,358.65
2023-05-24T08:08:43.517Z,151.27
2023-05-24T08:11:14.832Z,260.73
2023-05-24T08:13:46.451Z,198.27
2023-05-24T08:16:12.713Z,188.00
2023-05-24T08:18:39.068Z,180.27
2023-05-24T08:21:05.649Z,175.18
2023-05-24T08:23:35.870Z,155.13
2023-05-24T08:26:02.131Z,151.88
2023-05-24T08:28:28.459Z,138.90
2023-05-24T08:30:55.279Z,135.00
2023-05-24T08:33:21.554Z,135.48
2023-05-24T08:35:47.804Z,510.00
2023-05-24T08:38:14.149Z,522.10
2023-05-24T08:40:42.957Z,477.10
2023-05-24T08:43:09.377Z,412.65
2023-05-24T08:45:36.874Z,367.17
2023-05-24T08:48:04.144Z,336.52
2023-05-24T08:50:38.274Z,318.90
2023-05-24T08:53:05.756Z,297.27
2023-05-24T08:55:33.462Z,276.63
2023-05-24T08:57:59.844Z,275.90
2023-05-24T09:00:26.218Z,257.90
2023-05-24T09:02:57.078Z,248.80
2023-05-24T09:05:23.541Z,235.98
2023-05-24T09:07:49.786Z,285.60
2023-05-24T09:10:17.228Z,252.15
2023-05-24T09:12:47.476Z,243.18
2023-05-24T09:15:13.981Z,229.48
2023-05-24T09:17:40.285Z,215.65
2023-05-24T09:20:10.476Z,226.18
2023-05-24T09:22:39.564Z,272.70
2023-05-24T09:25:12.652Z,265.35
2023-05-24T09:27:39.050Z,252.82
2023-05-24T09:30:09.692Z,257.15
2023-05-24T09:32:36.041Z,243.15
2023-05-24T09:35:02.406Z,247.10
2023-05-24T09:37:32.872Z,239.55
2023-05-24T09:39:59.604Z,236.98
2023-05-24T09:42:31.099Z,778.22
2023-05-24T09:44:58.708Z,627.90
2023-05-24T09:47:25.104Z,533.33
2023-05-24T09:49:52.968Z,504.60
2023-05-24T09:52:20.241Z,459.95
2023-05-24T09:54:52.313Z,439.65
2023-05-24T09:59:49.005Z,401.45
2023-05-24T10:02:19.985Z,402.90
2023-05-24T10:04:49.918Z,398.02
2023-05-24T10:07:24.541Z,382.27
2023-05-24T10:09:50.852Z,360.77
2023-05-24T10:12:18.949Z,357.67
2023-05-24T10:14:47.765Z,355.52
2023-05-24T10:17:15.968Z,352.55
2023-05-24T10:19:42.259Z,341.08
2023-05-24T10:22:08.520Z,333.60
2023-05-24T10:24:34.809Z,319.63
2023-05-24T10:27:01.086Z,325.63
2023-05-24T10:29:30.705Z,319.17
2023-05-24T10:31:56.999Z,385.73
2023-05-24T10:34:23.266Z,373.02
2023-05-24T10:36:49.734Z,395.33
2023-05-24T10:39:21.343Z,364.73
2023-05-24T10:41:47.803Z,368.02
2023-05-24T10:44:14.278Z,351.52
2023-05-24T10:46:41.912Z,329.67
2023-05-24T10:49:11.626Z,319.90
2023-05-24T10:51:37.898Z,598.22
2023-05-24T10:54:04.712Z,534.97
2023-05-24T10:56:32.105Z,517.28
2023-05-24T10:58:58.450Z,478.48
2023-05-24T11:01:30.063Z,448.13
2023-05-24T11:03:57.471Z,441.95
2023-05-24T11:06:28.385Z,416.85
2023-05-24T11:08:59.655Z,428.98
2023-05-24T11:11:27.991Z,403.75
2023-05-24T11:13:56.535Z,397.88
2023-05-24T11:16:22.994Z,391.48
2023-05-24T11:18:49.532Z,377.35
2023-05-24T11:21:15.791Z,377.02
2023-05-24T11:23:42.043Z,362.58
2023-05-24T11:26:10.810Z,352.80
2023-05-24T11:28:42.330Z,344.52
2023-05-24T11:31:08.807Z,330.50
2023-05-24T11:33:35.094Z,325.30
2023-05-24T11:36:04.050Z,319.42
2023-05-24T11:38:33.463Z,314.60
2023-05-24T11:41:04.295Z,300.17
2023-05-24T11:43:30.648Z,297.15
2023-05-24T11:45:56.942Z,304.20
2023-05-24T11:48:23.234Z,681.55
2023-05-24T11:50:54.412Z,514.25
2023-05-24T11:53:20.878Z,476.92
2023-05-24T11:55:50.147Z,443.67
2023-05-24T11:58:16.667Z,426.83
2023-05-24T12:00:43.283Z,412.73
2023-05-24T12:03:10.174Z,408.75
2023-05-24T12:05:36.664Z,815.47
2023-05-24T12:08:05.300Z,552.03
2023-05-24T12:10:37.643Z,548.20
2023-05-24T12:13:05.452Z,511.23
2023-05-24T12:15:35.039Z,494.33
2023-05-24T12:18:01.437Z,442.45
2023-05-24T12:20:30.863Z,467.17
2023-05-24T12:22:57.187Z,443.58
2023-05-24T12:25:24.330Z,447.55
2023-05-24T12:27:52.285Z,434.45
2023-05-24T12:30:20.531Z,425.92
2023-05-24T12:32:53.066Z,415.73
2023-05-24T12:35:24.653Z,373.05
2023-05-24T12:37:51.059Z,170.48
2023-05-24T12:40:17.352Z,136.23
2023-05-24T12:42:43.844Z,107.78
2023-05-24T12:45:16.877Z,107.10
2023-05-24T12:47:43.192Z,205.77
2023-05-24T12:50:16.899Z,336.30
2023-05-24T12:52:43.487Z,332.35
2023-05-24T12:55:10.050Z,285.65
2023-05-24T12:57:36.295Z,255.00
2023-05-24T13:00:04.324Z,227.40
2023-05-24T13:02:30.637Z,219.85
2023-05-24T13:04:56.973Z,218.25
2023-05-24T13:07:30.282Z,204.60
2023-05-24T13:09:56.884Z,200.15
2023-05-24T13:12:23.509Z,195.10
2023-05-24T13:14:52.669Z,194.57
2023-05-24T13:17:22.351Z,183.13
2023-05-24T13:19:48.848Z,182.45
2023-05-24T13:22:17.267Z,167.57
2023-05-24T13:24:45.678Z,172.02
2023-05-24T13:27:11.923Z,167.13
2023-05-24T13:29:48.827Z,121.25
2023-05-24T13:32:24.458Z,44.60
2023-05-24T13:34:50.806Z,41.70
2023-05-24T13:37:19.282Z,46.78
2023-05-24T13:39:45.633Z,65.75
2023-05-24T13:42:16.365Z,95.82
2023-05-24T13:44:49.474Z,93.88
2023-05-24T13:47:38.754Z,97.65
2023-05-24T13:50:06.476Z,98.90
2023-05-24T13:52:32.789Z,95.20
2023-05-24T13:55:06.707Z,91.07
2023-05-24T13:57:49.684Z,87.30
2023-05-24T14:00:25.156Z,86.03
2023-05-24T14:02:51.434Z,77.88
2023-05-24T14:05:27.345Z,78.55
2023-05-24T14:07:59.279Z,75.07
2023-05-24T14:10:25.573Z,75.43
2023-05-24T14:13:03.928Z,72.20
2023-05-24T14:15:44.627Z,65.70
2023-05-24T14:18:13.907Z,69.13
2023-05-24T14:20:41.373Z,63.97
2023-05-24T14:23:12.171Z,65.28
2023-05-24T14:25:43.146Z,59.35
2023-05-24T14:28:09.642Z,61.05
2023-05-24T14:30:40.659Z,62.67
2023-05-24T14:33:10.572Z,56.83
2023-05-24T14:35:36.825Z,54.95
2023-05-24T14:38:04.963Z,56.10
2023-05-24T14:40:33.703Z,53.40
2023-05-24T14:43:00.153Z,52.50
2023-05-24T14:45:26.401Z,52.72
2023-05-24T14:47:56.122Z,50.97
2023-05-24T14:50:23.364Z,51.30
2023-05-24T14:52:55.112Z,47.08
2023-05-24T14:55:21.924Z,47.42
2023-05-24T14:57:48.328Z,46.67
2023-05-24T15:00:19.807Z,45.30
2023-05-24T15:05:16.020Z,44.28
2023-05-24T15:07:42.288Z,44.90
2023-05-24T15:10:10.561Z,39.55
2023-05-24T15:12:36.864Z,43.03
2023-05-24T15:15:03.116Z,40.83
2023-05-24T15:17:33.118Z,36.92
2023-05-24T15:19:59.487Z,42.08
2023-05-24T15:22:35.058Z,40.40
2023-05-24T15:25:04.265Z,36.00
2023-05-24T15:27:30.544Z,37.65
2023-05-24T15:30:03.433Z,40.58
2023-05-24T15:32:34.758Z,35.85
2023-05-24T15:35:03.380Z,37.05
2023-05-24T15:37:29.680Z,38.08
2023-05-24T15:39:55.957Z,35.25
2023-05-24T15:42:25.864Z,33.45
2023-05-24T15:44:52.172Z,33.78
2023-05-24T15:47:21.933Z,35.15
2023-05-24T15:49:48.703Z,32.80
2023-05-24T15:52:15.177Z,32.40
2023-05-24T15:54:41.447Z,32.60
2023-05-24T15:57:07.777Z,30.17
2023-05-24T15:59:34.178Z,32.20
2023-05-24T16:02:06.315Z,31.80
2023-05-24T16:04:35.783Z,31.85
2023-05-24T16:07:02.188Z,29.90
2023-05-24T16:09:28.435Z,31.17
2023-05-24T16:11:54.696Z,27.77
2023-05-24T16:14:21.147Z,29.52
2023-05-24T16:16:47.467Z,29.08
2023-05-24T16:19:13.751Z,27.38
2023-05-24T16:21:41.536Z,30.60
2023-05-24T16:24:10.884Z,25.67
2023-05-24T16:26:41.470Z,28.80
2023-05-24T16:29:07.751Z,25.42
2023-05-24T16:31:34.174Z,24.45
2023-05-24T16:34:00.558Z,24.75
2023-05-24T16:36:26.810Z,26.38
2023-05-24T16:38:55.499Z,27.05
2023-05-24T16:41:21.743Z,26.90
2023-05-24T16:43:52.424Z,24.40
2023-05-24T16:46:25.328Z,25.45
2023-05-24T16:48:54.099Z,25.13
2023-05-24T16:51:23.738Z,23.38
2023-05-24T16:53:50.000Z,23.88
2023-05-24T16:56:16.250Z,25.75
2023-05-24T16:58:42.506Z,22.70
2023-05-24T17:01:08.761Z,23.70
2023-05-24T17:03:37.413Z,23.58
2023-05-24T17:06:04.172Z,22.48
2023-05-24T17:08:34.326Z,21.08
2023-05-24T17:11:00.615Z,22.25
2023-05-24T17:13:29.451Z,24.33
2023-05-24T17:15:55.891Z,22.10
2023-05-24T17:18:23.497Z,21.17
2023-05-24T17:20:49.826Z,23.08
2023-05-24T17:23:16.175Z,22.13
2023-05-24T17:25:42.453Z,21.20
2023-05-24T17:28:10.093Z,20.50
2023-05-24T17:30:36.356Z,22.42
2023-05-24T17:33:02.725Z,20.45
2023-05-24T17:35:29.058Z,22.23
2023-05-24T17:37:55.315Z,20.02
2023-05-24T17:40:24.057Z,21.15
2023-05-24T17:42:50.662Z,20.88
2023-05-24T17:45:24.039Z,18.63
2023-05-24T17:47:50.328Z,18.70
2023-05-24T17:50:20.206Z,19.33
2023-05-24T17:52:47.061Z,19.95
2023-05-24T17:55:18.494Z,17.98
2023-05-24T17:57:44.779Z,18.42
2023-05-24T18:00:11.536Z,19.83
2023-05-24T18:02:39.635Z,18.83
2023-05-24T18:05:06.055Z,18.02
2023-05-24T18:07:32.476Z,19.92
2023-05-24T18:10:04.286Z,18.77
2023-05-24T18:12:30.605Z,18.92
2023-05-24T18:14:57.001Z,18.17
2023-05-24T18:17:23.426Z,16.63
2023-05-24T18:19:55.298Z,17.45
2023-05-24T18:22:23.298Z,16.52
2023-05-24T18:24:49.571Z,19.15
2023-05-24T18:27:15.970Z,18.95
2023-05-24T18:32:12.630Z,17.33
2023-05-24T18:34:38.950Z,17.08
2023-05-24T18:37:05.221Z,15.68
2023-05-24T18:39:31.684Z,16.25
2023-05-24T18:42:02.877Z,16.40
2023-05-24T18:44:30.871Z,14.65
2023-05-24T18:46:57.276Z,15.68
2023-05-24T18:49:23.555Z,16.00
2023-05-24T18:51:49.855Z,14.90
2023-05-24T18:54:16.173Z,13.48
2023-05-24T18:56:42.480Z,14.35
2023-05-24T18:59:13.159Z,14.35
2023-05-24T19:01:39.628Z,12.82
2023-05-24T19:04:09.177Z,13.98
2023-05-24T19:06:37.753Z,15.82
2023-05-24T19:09:04.005Z,14.02
2023-05-24T19:11:30.382Z,12.85
2023-05-24T19:14:05.062Z,13.90
2023-05-24T19:16:31.368Z,13.40
2023-05-24T19:18:58.778Z,15.30
2023-05-24T19:21:30.471Z,14.57
2023-05-24T19:23:56.928Z,12.85
2023-05-24T19:26:29.194Z,14.68
2023-05-24T19:28:55.730Z,14.95
2023-05-24T19:31:28.131Z,12.90
2023-05-24T19:34:02.015Z,12.93
2023-05-24T19:36:31.378Z,13.70
2023-05-24T19:38:57.673Z,13.98
2023-05-24T19:41:27.556Z,12.85
2023-05-24T19:43:56.065Z,14.50
2023-05-24T19:46:22.779Z,13.18
2023-05-24T19:48:49.040Z,13.55
2023-05-24T19:51:18.562Z,13.90
2023-05-24T19:53:48.223Z,12.10
2023-05-24T19:56:14.497Z,12.55
2023-05-24T19:58:44.714Z,11.60
2023-05-24T20:01:11.205Z,11.63
2023-05-24T20:03:37.779Z,12.23
2023-05-24T20:06:04.153Z,12.02
2023-05-24T20:08:30.482Z,12.48
2023-05-24T20:10:58.488Z,11.23
2023-05-24T20:13:24.798Z,13.00
2023-05-24T20:15:55.897Z,11.13
2023-05-24T20:18:22.471Z,10.52
2023-05-24T20:20:48.918Z,11.32
2023-05-24T20:23:16.989Z,11.70
2023-05-24T20:25:45.799Z,11.65
2023-05-24T20:28:25.675Z,12.27
2023-05-24T20:30:55.592Z,10.07
2023-05-24T20:33:22.144Z,10.25
2023-05-24T20:35:48.538Z,12.38
2023-05-24T20:38:18.466Z,10.40
2023-05-24T20:40:45.134Z,10.07
2023-05-24T20:43:17.248Z,11.25
2023-05-24T20:45:45.654Z,11.82
2023-05-24T20:48:12.259Z,12.07
2023-05-24T20:50:39.114Z,10.57
2023-05-24T20:53:09.945Z,10.48
2023-05-24T20:55:36.314Z,8.70
2023-05-24T20:58:02.817Z,10.48
2023-05-24T21:00:29.125Z,10.15
2023-05-24T21:03:01.519Z,10.35
2023-05-24T21:05:33.826Z,10.23
2023-05-24T21:08:00.167Z,8.80
2023-05-24T21:10:28.934Z,11.02
2023-05-24T21:12:55.323Z,10.88
2023-05-24T21:15:22.456Z,9.98
2023-05-24T21:17:50.897Z,10.20
2023-05-24T21:20:23.210Z,10.30
2023-05-24T21:22:49.579Z,8.57
2023-05-24T21:25:18.183Z,10.48
2023-05-24T21:27:50.919Z,9.48
2023-05-24T21:30:19.479Z,10.00
2023-05-24T21:32:45.826Z,9.10
2023-05-24T21:35:15.191Z,10.30
2023-05-24T21:37:44.608Z,9.13
2023-05-24T21:40:12.513Z,9.93
2023-05-24T21:42:38.771Z,8.90
2023-05-24T21:45:13.339Z,9.63
2023-05-24T21:47:39.708Z,9.35
2023-05-24T21:50:13.701Z,8.40
2023-05-24T21:52:42.002Z,9.15
2023-05-24T21:55:08.741Z,7.93
2023-05-24T21:57:43.228Z,8.10
2023-05-24T22:00:14.331Z,8.77
2023-05-24T22:02:41.810Z,8.65
2023-05-24T22:05:09.039Z,8.27
2023-05-24T22:07:41.349Z,7.88
2023-05-24T22:10:07.909Z,8.20
2023-05-24T22:12:36.101Z,9.77
2023-05-24T22:15:02.461Z,9.43
2023-05-24T22:17:28.747Z,8.65
2023-05-24T22:19:55.110Z,7.38
2023-05-24T22:22:27.687Z,9.15
2023-05-24T22:24:54.297Z,8.70
2023-05-24T22:27:22.808Z,8.98
2023-05-24T22:29:52.795Z,8.68
2023-05-24T22:32:23.839Z,8.10
2023-05-24T22:34:50.121Z,8.25
2023-05-24T22:37:16.530Z,8.90
2023-05-24T22:39:42.833Z,7.50
2023-05-24T22:42:09.167Z,8.13
2023-05-24T22:44:42.033Z,7.68
2023-05-24T22:47:09.275Z,7.40
2023-05-24T22:49:36.918Z,7.22
2023-05-24T22:52:10.728Z,7.03
2023-05-24T22:54:36.992Z,6.75
2023-05-24T22:57:11.110Z,6.93
2023-05-24T22:59:37.557Z,7.30
2023-05-24T23:02:03.811Z,6.72
2023-05-24T23:04:34.094Z,6.63
2023-05-24T23:07:06.395Z,7.07
2023-05-24T23:09:35.848Z,6.73
2023-05-24T23:12:04.577Z,6.63
2023-05-24T23:14:30.834Z,9.30
2023-05-24T23:16:57.139Z,7.45
2023-05-24T23:19:25.782Z,7.03
2023-05-24T23:21:52.831Z,6.93
2023-05-24T23:24:22.731Z,8.68
2023-05-24T23:26:49.082Z,7.28
2023-05-24T23:29:15.370Z,8.85
2023-05-24T23:31:44.350Z,8.93
2023-05-24T23:34:10.621Z,6.53
2023-05-24T23:36:40.635Z,8.40
2023-05-24T23:39:10.232Z,6.32
2023-05-24T23:41:42.687Z,7.50
2023-05-24T23:44:11.695Z,7.13
2023-05-24T23:46:43.369Z,8.60
2023-05-24T23:49:10.415Z,5.75
2023-05-24T23:51:36.710Z,7.70
2023-05-24T23:54:02.955Z,7.95
2023-05-24T23:56:29.213Z,8.02
2023-05-24T23:58:55.494Z,6.40
